Time;durP1;ratioP1;P1;durP2;ratioP2;P2;SDS_P1;SDS_P2;PMS_P1;PMS_P2;Temp;Humidity;BMP_temperature;BMP_pressure;BME280_temperature;BME280_humidity;BME280_pressure;Samples;Min_cycle;Max_cycle;Signal;HPM_P1;HPM_P2
2021/04/21 00:00:07;;;;;;;83.43;52.33;;;;;;;;;;5037525;28;38313;-79
2021/04/21 00:02:33;;;;;;;96.30;54.40;;;;;;;;;;5053727;28;39405;-78
2021/04/21 00:05:00;;;;;;;91.33;55.27;;;;;;;;;;5045530;28;39403;-80
2021/04/21 00:07:27;;;;;;;90.37;52.80;;;;;;;;;;5045120;28;38329;-79
2021/04/21 00:09:54;;;;;;;95.17;56.53;;;;;;;;;;5051579;28;39005;-79
2021/04/21 00:12:21;;;;;;;98.97;55.77;;;;;;;;;;5053667;28;39136;-79
2021/04/21 00:14:48;;;;;;;97.73;55.53;;;;;;;;;;5051935;28;38763;-78
2021/04/21 00:17:14;;;;;;;99.83;56.77;;;;;;;;;;5051515;28;38418;-79
2021/04/21 00:19:41;;;;;;;95.20;55.53;;;;;;;;;;5052422;28;40399;-79
2021/04/21 00:22:10;;;;;;;103.40;57.10;;;;;;;;;;5032723;28;39047;-78
2021/04/21 00:24:38;;;;;;;99.63;55.83;;;;;;;;;;5044106;28;39085;-78
2021/04/21 00:27:05;;;;;;;91.83;56.40;;;;;;;;;;5034470;28;37344;-78
2021/04/21 00:29:32;;;;;;;98.27;54.53;;;;;;;;;;5035098;28;39037;-78
2021/04/21 00:32:00;;;;;;;94.13;53.30;;;;;;;;;;5048200;28;38716;-78
2021/04/21 00:34:27;;;;;;;95.13;55.97;;;;;;;;;;5046746;28;47184;-79
2021/04/21 00:36:55;;;;;;;98.20;55.20;;;;;;;;;;5047907;28;38134;-77
2021/04/21 00:39:23;;;;;;;95.70;55.23;;;;;;;;;;5053642;28;39463;-77
2021/04/21 00:42:01;;;;;;;99.33;57.40;;;;;;;;;;5035428;28;39365;-77
2021/04/21 00:44:40;;;;;;;95.60;53.20;;;;;;;;;;5045370;28;47200;-77
2021/04/21 00:47:08;;;;;;;106.27;62.10;;;;;;;;;;5047443;28;37348;-77
2021/04/21 00:49:43;;;;;;;103.37;57.13;;;;;;;;;;5047056;28;37927;-77
2021/04/21 00:52:36;;;;;;;110.30;59.77;;;;;;;;;;5046875;28;37820;-80
2021/04/21 00:55:15;;;;;;;93.38;52.78;;;;;;;;;;5022740;28;39682;-78
2021/04/21 00:57:51;;;;;;;95.60;53.10;;;;;;;;;;5025414;28;38076;-79
2021/04/21 01:00:26;;;;;;;93.47;53.70;;;;;;;;;;5048505;28;36784;-80
2021/04/21 01:03:12;;;;;;;95.60;54.33;;;;;;;;;;5033970;28;39602;-78
2021/04/21 01:05:40;;;;;;;98.27;53.47;;;;;;;;;;5051698;28;47662;-79
2021/04/21 01:08:08;;;;;;;108.83;58.67;;;;;;;;;;5054001;28;37006;-79
2021/04/21 01:10:38;;;;;;;98.10;56.70;;;;;;;;;;5054932;28;39360;-79
2021/04/21 01:13:04;;;;;;;103.33;57.57;;;;;;;;;;5043292;28;39235;-78
2021/04/21 01:15:31;;;;;;;95.93;52.93;;;;;;;;;;5049899;28;39712;-79
2021/04/21 01:17:59;;;;;;;107.97;60.30;;;;;;;;;;5049409;28;36846;-79
2021/04/21 01:20:35;;;;;;;101.30;56.57;;;;;;;;;;5048479;28;38508;-79
2021/04/21 01:23:13;;;;;;;104.27;59.83;;;;;;;;;;5045610;28;37410;-78
2021/04/21 01:26:02;;;;;;;108.73;58.20;;;;;;;;;;5040954;28;48716;-78
2021/04/21 01:28:29;;;;;;;96.57;52.97;;;;;;;;;;5041040;28;49476;-79
2021/04/21 01:30:55;;;;;;;109.80;58.53;;;;;;;;;;5045349;28;38899;-78
2021/04/21 01:33:24;;;;;;;104.27;55.93;;;;;;;;;;5048081;28;38984;-78
2021/04/21 01:36:10;;;;;;;100.07;55.73;;;;;;;;;;5050077;28;40756;-78
2021/04/21 01:38:38;;;;;;;112.87;59.47;;;;;;;;;;5050944;28;48386;-78
2021/04/21 01:41:07;;;;;;;97.70;53.43;;;;;;;;;;5050055;28;39513;-78
2021/04/21 01:43:40;;;;;;;95.13;54.80;;;;;;;;;;5045469;28;39749;-78
2021/04/21 01:46:08;;;;;;;98.80;57.37;;;;;;;;;;5046665;28;39347;-78
2021/04/21 01:48:35;;;;;;;100.97;54.50;;;;;;;;;;5035215;28;37424;-78
2021/04/21 01:51:05;;;;;;;97.07;53.17;;;;;;;;;;5049385;28;38417;-78
2021/04/21 01:53:38;;;;;;;89.30;52.53;;;;;;;;;;5028849;28;47304;-78
2021/04/21 01:56:04;;;;;;;96.35;55.55;;;;;;;;;;5043050;28;38925;-76
2021/04/21 01:58:32;;;;;;;95.23;54.30;;;;;;;;;;5051625;28;35868;-77
2021/04/21 02:01:04;;;;;;;92.67;55.57;;;;;;;;;;5057489;28;39370;-79
2021/04/21 02:03:34;;;;;;;105.27;58.20;;;;;;;;;;5054627;28;48528;-78
2021/04/21 02:06:06;;;;;;;103.87;56.20;;;;;;;;;;5041161;28;39544;-79
2021/04/21 02:08:32;;;;;;;;;;;;;;;;;;5049256;28;49017;-78
2021/04/21 02:11:05;;;;;;;85.77;48.10;;;;;;;;;;5052247;28;40683;-78
2021/04/21 02:13:38;;;;;;;77.88;45.33;;;;;;;;;;5030159;28;48217;-78
2021/04/21 02:16:07;;;;;;;83.70;47.42;;;;;;;;;;5042985;28;38863;-78
2021/04/21 02:18:52;;;;;;;73.13;43.90;;;;;;;;;;5049824;28;37396;-79
2021/04/21 02:21:18;;;;;;;75.43;44.17;;;;;;;;;;5046638;28;38933;-79
2021/04/21 02:23:57;;;;;;;73.03;39.30;;;;;;;;;;5045302;28;39043;-78
2021/04/21 02:26:32;;;;;;;71.83;40.23;;;;;;;;;;5048416;28;37838;-79
2021/04/21 02:28:58;;;;;;;74.27;39.57;;;;;;;;;;5050862;28;37676;-79
2021/04/21 02:31:43;;;;;;;65.97;39.03;;;;;;;;;;5029180;28;39565;-78
2021/04/21 02:34:10;;;;;;;57.67;35.80;;;;;;;;;;5044132;28;39680;-78
2021/04/21 02:36:39;;;;;;;56.10;34.40;;;;;;;;;;5043902;28;38833;-78
2021/04/21 02:39:11;;;;;;;57.30;33.57;;;;;;;;;;5051276;28;37087;-77
2021/04/21 02:41:56;;;;;;;52.60;31.17;;;;;;;;;;5052389;28;37718;-78
2021/04/21 02:44:42;;;;;;;53.57;31.93;;;;;;;;;;5051924;28;39828;-77
2021/04/21 02:47:11;;;;;;;64.50;32.03;;;;;;;;;;5045036;28;39423;-77
2021/04/21 02:49:37;;;;;;;55.10;32.37;;;;;;;;;;5054649;28;36918;-77
2021/04/21 02:52:04;;;;;;;54.63;31.77;;;;;;;;;;5039715;28;37805;-78
2021/04/21 02:54:48;;;;;;;53.93;34.03;;;;;;;;;;5055594;28;39953;-77
2021/04/21 02:57:19;;;;;;;53.67;34.00;;;;;;;;;;5055876;28;39044;-77
2021/04/21 02:59:48;;;;;;;61.13;37.07;;;;;;;;;;5052781;28;35999;-78
2021/04/21 03:02:18;;;;;;;63.57;36.67;;;;;;;;;;5052356;28;39478;-78
2021/04/21 03:04:56;;;;;;;61.50;37.67;;;;;;;;;;5057071;28;39000;-78
2021/04/21 03:07:37;;;;;;;63.40;36.33;;;;;;;;;;5047666;28;38575;-77
2021/04/21 03:10:14;;;;;;;58.23;35.60;;;;;;;;;;5056818;28;36218;-77
2021/04/21 03:12:44;;;;;;;61.47;36.80;;;;;;;;;;5057268;28;40227;-77
2021/04/21 03:15:13;;;;;;;57.67;36.33;;;;;;;;;;5052583;28;40043;-77
2021/04/21 03:17:41;;;;;;;58.70;35.07;;;;;;;;;;5046575;28;39075;-78
2021/04/21 03:20:13;;;;;;;55.53;35.03;;;;;;;;;;5055170;28;37333;-79
2021/04/21 03:22:41;;;;;;;52.63;33.63;;;;;;;;;;5055899;28;39129;-78
2021/04/21 03:25:16;;;;;;;50.40;31.47;;;;;;;;;;5048115;28;39616;-78
2021/04/21 03:27:44;;;;;;;54.57;32.27;;;;;;;;;;5048691;28;38794;-77
2021/04/21 03:30:12;;;;;;;47.77;30.63;;;;;;;;;;5047331;28;36047;-77
2021/04/21 03:32:41;;;;;;;47.00;30.17;;;;;;;;;;5056507;28;39299;-78
2021/04/21 03:35:07;;;;;;;44.03;28.20;;;;;;;;;;5055498;28;40403;-77
2021/04/21 03:37:49;;;;;;;48.03;29.17;;;;;;;;;;5059057;28;38640;-78
2021/04/21 03:40:16;;;;;;;50.63;29.60;;;;;;;;;;5040050;28;37733;-77
2021/04/21 03:42:46;;;;;;;41.10;26.80;;;;;;;;;;5057425;28;37643;-77
2021/04/21 03:45:13;;;;;;;50.40;27.23;;;;;;;;;;5056255;28;39140;-78
2021/04/21 03:47:40;;;;;;;43.07;27.20;;;;;;;;;;5053570;28;38519;-77
2021/04/21 03:50:07;;;;;;;46.47;27.07;;;;;;;;;;5050283;28;36801;-77
2021/04/21 03:52:35;;;;;;;44.93;26.63;;;;;;;;;;5058613;28;40246;-77
2021/04/21 03:55:02;;;;;;;44.30;26.50;;;;;;;;;;5055826;28;39151;-78
2021/04/21 03:57:30;;;;;;;46.07;26.83;;;;;;;;;;5055330;28;49681;-79
2021/04/21 03:59:58;;;;;;;41.70;26.70;;;;;;;;;;5057026;28;38446;-79
2021/04/21 04:02:26;;;;;;;48.07;28.13;;;;;;;;;;5055145;28;39143;-76
2021/04/21 04:04:56;;;;;;;42.13;26.20;;;;;;;;;;5049793;28;39196;-76
2021/04/21 04:07:25;;;;;;;43.83;27.30;;;;;;;;;;5056578;28;38103;-78
2021/04/21 04:09:51;;;;;;;43.37;27.73;;;;;;;;;;5057095;28;37898;-78
2021/04/21 04:12:19;;;;;;;46.87;26.57;;;;;;;;;;5055633;28;37399;-78
2021/04/21 04:14:46;;;;;;;43.27;27.10;;;;;;;;;;5043305;28;38331;-77
2021/04/21 04:17:14;;;;;;;46.93;28.50;;;;;;;;;;5052917;28;38483;-79
2021/04/21 04:19:42;;;;;;;47.10;28.50;;;;;;;;;;5048955;28;36722;-78
2021/04/21 04:22:12;;;;;;;49.93;30.43;;;;;;;;;;5051034;28;37863;-77
2021/04/21 04:24:43;;;;;;;47.20;30.17;;;;;;;;;;5039352;28;38134;-77
2021/04/21 04:27:16;;;;;;;50.63;31.43;;;;;;;;;;5031954;28;38564;-78
2021/04/21 04:29:43;;;;;;;50.60;30.53;;;;;;;;;;5031301;28;35990;-77
2021/04/21 04:32:14;;;;;;;56.40;31.87;;;;;;;;;;5030427;28;38865;-77
2021/04/21 04:34:44;;;;;;;49.20;30.70;;;;;;;;;;5052987;28;39493;-77
2021/04/21 04:37:14;;;;;;;48.50;29.67;;;;;;;;;;5051388;28;39976;-78
2021/04/21 04:39:41;;;;;;;53.03;33.23;;;;;;;;;;5033589;28;35933;-77
2021/04/21 04:42:08;;;;;;;52.83;33.37;;;;;;;;;;5047379;28;40417;-78
2021/04/21 04:44:35;;;;;;;55.20;33.53;;;;;;;;;;5047995;28;40094;-78
2021/04/21 04:47:04;;;;;;;50.23;32.50;;;;;;;;;;5045990;28;37488;-76
2021/04/21 04:49:32;;;;;;;53.47;33.23;;;;;;;;;;5049693;28;38309;-77
2021/04/21 04:51:59;;;;;;;54.63;33.93;;;;;;;;;;5055344;28;40374;-78
2021/04/21 04:54:26;;;;;;;55.97;33.77;;;;;;;;;;5053869;28;39274;-78
2021/04/21 04:56:53;;;;;;;55.23;33.73;;;;;;;;;;5046401;28;39592;-78
2021/04/21 04:59:24;;;;;;;60.43;34.93;;;;;;;;;;5048508;28;36906;-77
2021/04/21 05:01:57;;;;;;;54.13;34.63;;;;;;;;;;5049744;28;39232;-77
2021/04/21 05:04:23;;;;;;;;;;;;;;;;;;5050108;28;39306;-77
2021/04/21 05:06:51;;;;;;;57.13;35.17;;;;;;;;;;5050537;28;39481;-78
2021/04/21 05:09:19;;;;;;;61.63;35.47;;;;;;;;;;5041063;28;35398;-78
2021/04/21 05:11:46;;;;;;;53.63;33.40;;;;;;;;;;5047374;28;39424;-78
2021/04/21 05:14:15;;;;;;;59.73;34.07;;;;;;;;;;5047915;28;38805;-77
2021/04/21 05:16:53;;;;;;;55.03;34.90;;;;;;;;;;5048678;28;38990;-77
2021/04/21 05:19:32;;;;;;;57.00;33.57;;;;;;;;;;5052445;28;37320;-77
2021/04/21 05:22:17;;;;;;;59.43;33.43;;;;;;;;;;5048699;28;39237;-77
2021/04/21 05:25:03;;;;;;;50.47;31.60;;;;;;;;;;5051739;28;49370;-78
2021/04/21 05:27:38;;;;;;;49.67;31.50;;;;;;;;;;5031660;28;47396;-77
2021/04/21 05:30:23;;;;;;;53.27;31.47;;;;;;;;;;5046064;28;37405;-77
2021/04/21 05:33:15;;;;;;;54.77;31.90;;;;;;;;;;5030363;28;37838;-77
2021/04/21 05:36:01;;;;;;;50.80;31.52;;;;;;;;;;5046935;28;49148;-78
2021/04/21 05:38:39;;;;;;;52.90;32.93;;;;;;;;;;5050204;28;38900;-78
2021/04/21 05:41:31;;;;;;;54.80;31.93;;;;;;;;;;5050069;28;37691;-77
2021/04/21 05:44:24;;;;;;;55.87;34.80;;;;;;;;;;5052262;28;37975;-77
2021/04/21 05:46:50;;;;;;;56.33;34.75;;;;;;;;;;5052513;28;49321;-76
2021/04/21 05:49:25;;;;;;;58.17;35.97;;;;;;;;;;5051041;28;39015;-76
2021/04/21 05:52:10;;;;;;;55.27;33.03;;;;;;;;;;5053709;28;37307;-77
2021/04/21 05:54:56;;;;;;;61.33;33.90;;;;;;;;;;5047178;28;47030;-78
2021/04/21 05:57:34;;;;;;;63.13;34.33;;;;;;;;;;5047227;28;40302;-77
2021/04/21 06:00:10;;;;;;;61.20;31.60;;;;;;;;;;5022596;28;39188;-77
2021/04/21 06:02:36;;;;;;;47.63;30.93;;;;;;;;;;5040196;28;49329;-77
2021/04/21 06:05:13;;;;;;;50.87;31.17;;;;;;;;;;5029482;28;37084;-77
2021/04/21 06:07:40;;;;;;;45.83;29.70;;;;;;;;;;5032303;28;37495;-77
2021/04/21 06:10:20;;;;;;;45.50;27.80;;;;;;;;;;5029527;28;39645;-77
2021/04/21 06:12:47;;;;;;;50.60;28.30;;;;;;;;;;5048475;28;38090;-77
2021/04/21 06:15:16;;;;;;;53.37;29.33;;;;;;;;;;5033931;28;39021;-76
2021/04/21 06:17:46;;;;;;;54.23;28.03;;;;;;;;;;5050515;28;39754;-77
2021/04/21 06:20:16;;;;;;;45.50;27.00;;;;;;;;;;5034875;28;37764;-77
2021/04/21 06:22:42;;;;;;;51.07;29.07;;;;;;;;;;5054884;28;38179;-77
2021/04/21 06:25:09;;;;;;;49.37;27.33;;;;;;;;;;5050475;28;38950;-78
2021/04/21 06:27:36;;;;;;;49.67;27.93;;;;;;;;;;5046740;28;39572;-78
2021/04/21 06:30:07;;;;;;;46.93;27.03;;;;;;;;;;5024444;28;39110;-76
2021/04/21 06:32:33;;;;;;;44.63;26.90;;;;;;;;;;5054167;28;37608;-77
2021/04/21 06:35:03;;;;;;;48.47;28.80;;;;;;;;;;5026616;28;38422;-77
2021/04/21 06:37:30;;;;;;;50.43;27.07;;;;;;;;;;5043032;28;49108;-77
2021/04/21 06:40:00;;;;;;;49.75;28.25;;;;;;;;;;5048023;28;39466;-77
2021/04/21 06:42:27;;;;;;;50.33;28.10;;;;;;;;;;5043333;28;38277;-77
2021/04/21 06:44:54;;;;;;;46.70;28.87;;;;;;;;;;5044480;28;38894;-77
2021/04/21 06:47:24;;;;;;;54.75;31.05;;;;;;;;;;5050310;28;38315;-77
2021/04/21 06:50:11;;;;;;;54.40;32.63;;;;;;;;;;5051429;28;38220;-77
2021/04/21 06:52:44;;;;;;;55.42;32.05;;;;;;;;;;5049701;28;47557;-77
2021/04/21 06:55:15;;;;;;;55.53;32.17;;;;;;;;;;5030594;28;39424;-76
2021/04/21 06:57:42;;;;;;;54.17;31.27;;;;;;;;;;5045306;28;39765;-78
2021/04/21 07:00:12;;;;;;;55.30;32.28;;;;;;;;;;5044309;28;39644;-78
2021/04/21 07:02:40;;;;;;;53.50;32.47;;;;;;;;;;5052510;28;37376;-77
2021/04/21 07:05:07;;;;;;;51.85;31.20;;;;;;;;;;5049602;28;39692;-78
2021/04/21 07:07:34;;;;;;;55.35;32.88;;;;;;;;;;5032233;28;39565;-78
2021/04/21 07:10:01;;;;;;;53.80;32.90;;;;;;;;;;5043774;28;39788;-77
2021/04/21 07:12:30;;;;;;;50.85;33.50;;;;;;;;;;5048492;28;38656;-77
2021/04/21 07:14:56;;;;;;;56.67;33.30;;;;;;;;;;5036870;28;40698;-77
2021/04/21 07:17:24;;;;;;;53.13;35.03;;;;;;;;;;5052152;28;40549;-77
2021/04/21 07:19:50;;;;;;;52.58;33.30;;;;;;;;;;5028339;28;39160;-77
2021/04/21 07:22:17;;;;;;;49.55;32.00;;;;;;;;;;5050928;28;36515;-77
2021/04/21 07:24:45;;;;;;;48.03;31.65;;;;;;;;;;5049506;28;38478;-78
2021/04/21 07:27:12;;;;;;;51.15;33.05;;;;;;;;;;5044935;28;39328;-78
2021/04/21 07:29:39;;;;;;;54.90;34.33;;;;;;;;;;5032582;28;38913;-78
2021/04/21 07:32:18;;;;;;;52.13;35.05;;;;;;;;;;5036623;28;36104;-78
2021/04/21 07:34:45;;;;;;;53.83;35.25;;;;;;;;;;5057186;28;40223;-77
2021/04/21 07:37:11;;;;;;;53.08;34.75;;;;;;;;;;5044493;28;39642;-77
2021/04/21 07:39:40;;;;;;;48.70;33.95;;;;;;;;;;5056312;28;39731;-78
2021/04/21 07:42:18;;;;;;;50.60;33.58;;;;;;;;;;5053197;28;35996;-79
2021/04/21 07:44:53;;;;;;;44.90;32.22;;;;;;;;;;5054355;28;38881;-78
2021/04/21 07:47:21;;;;;;;50.13;32.55;;;;;;;;;;5046761;28;40008;-78
2021/04/21 07:50:02;;;;;;;47.55;31.15;;;;;;;;;;5059936;28;38079;-78
2021/04/21 07:52:30;;;;;;;45.67;28.90;;;;;;;;;;5049459;28;48591;-78
2021/04/21 07:55:06;;;;;;;43.53;29.05;;;;;;;;;;5037745;28;39645;-78
2021/04/21 07:57:32;;;;;;;45.55;29.23;;;;;;;;;;5027639;28;47055;-78
2021/04/21 07:59:59;;;;;;;38.67;29.00;;;;;;;;;;5039052;28;39367;-78
2021/04/21 08:02:30;;;;;;;44.95;29.52;;;;;;;;;;5054833;28;37689;-78
2021/04/21 08:04:57;;;;;;;45.08;29.70;;;;;;;;;;5031908;28;38570;-78
2021/04/21 08:07:31;;;;;;;41.60;28.90;;;;;;;;;;5056223;28;37717;-77
2021/04/21 08:10:01;;;;;;;39.95;28.48;;;;;;;;;;5046901;28;40182;-77
2021/04/21 08:12:29;;;;;;;41.60;27.90;;;;;;;;;;5037252;28;46974;-78
2021/04/21 08:15:03;;;;;;;42.72;29.95;;;;;;;;;;5044688;28;39388;-79
2021/04/21 08:17:30;;;;;;;44.47;29.75;;;;;;;;;;5051683;28;46943;-78
2021/04/21 08:19:58;;;;;;;45.72;29.20;;;;;;;;;;5037094;28;38803;-78
2021/04/21 08:22:26;;;;;;;42.33;29.75;;;;;;;;;;5036249;28;38852;-78
2021/04/21 08:24:53;;;;;;;45.40;30.38;;;;;;;;;;5058346;28;39536;-77
2021/04/21 08:27:20;;;;;;;48.63;31.83;;;;;;;;;;5055095;28;37566;-77
2021/04/21 08:29:47;;;;;;;44.53;29.83;;;;;;;;;;5039400;28;37829;-78
2021/04/21 08:32:22;;;;;;;50.95;32.25;;;;;;;;;;5054138;28;38071;-79
2021/04/21 08:34:52;;;;;;;47.38;30.83;;;;;;;;;;5050477;28;39957;-78
2021/04/21 08:37:19;;;;;;;43.97;29.80;;;;;;;;;;5052461;28;39155;-78
2021/04/21 08:39:46;;;;;;;46.88;30.90;;;;;;;;;;5060678;28;39104;-78
2021/04/21 08:42:14;;;;;;;50.35;29.75;;;;;;;;;;5055529;28;37413;-78
2021/04/21 08:44:41;;;;;;;52.00;30.20;;;;;;;;;;5057154;28;39443;-78
2021/04/21 08:47:15;;;;;;;46.08;28.27;;;;;;;;;;5055907;28;39482;-79
2021/04/21 08:49:42;;;;;;;50.65;29.02;;;;;;;;;;5033364;28;39580;-78
2021/04/21 08:52:09;;;;;;;52.40;30.67;;;;;;;;;;5033719;28;36112;-78
2021/04/21 08:54:36;;;;;;;45.28;28.92;;;;;;;;;;5057230;28;40186;-78
2021/04/21 08:57:03;;;;;;;44.40;27.67;;;;;;;;;;5054086;28;40285;-77
2021/04/21 08:59:29;;;;;;;47.25;30.50;;;;;;;;;;5055654;28;37742;-78
2021/04/21 09:01:56;;;;;;;45.38;29.48;;;;;;;;;;5052945;28;38237;-78
2021/04/21 09:04:22;;;;;;;48.67;31.27;;;;;;;;;;5057565;28;40374;-78
2021/04/21 09:06:49;;;;;;;45.05;29.80;;;;;;;;;;5030825;28;40538;-79
2021/04/21 09:09:16;;;;;;;45.53;30.48;;;;;;;;;;5056826;28;37084;-79
2021/04/21 09:11:43;;;;;;;42.50;28.88;;;;;;;;;;5036464;28;37544;-79
2021/04/21 09:14:09;;;;;;;41.42;28.83;;;;;;;;;;5019060;28;41970;-78
2021/04/21 09:16:36;;;;;;;43.92;28.52;;;;;;;;;;5023255;28;38679;-78
2021/04/21 09:19:08;;;;;;;44.58;29.02;;;;;;;;;;5028957;28;38634;-77
2021/04/21 09:21:34;;;;;;;40.33;26.17;;;;;;;;;;5030251;28;37806;-78
2021/04/21 09:24:01;;;;;;;44.55;29.42;;;;;;;;;;5028372;28;41184;-78
2021/04/21 09:26:32;;;;;;;45.60;29.48;;;;;;;;;;5025920;28;47531;-78
2021/04/21 09:28:59;;;;;;;42.38;28.02;;;;;;;;;;5032196;28;38732;-79
2021/04/21 09:31:26;;;;;;;46.65;31.23;;;;;;;;;;5031913;28;37304;-78
2021/04/21 09:34:12;;;;;;;46.45;31.00;;;;;;;;;;5031274;28;39454;-78
2021/04/21 09:36:49;;;;;;;52.92;33.05;;;;;;;;;;5040873;28;47293;-80
2021/04/21 09:39:16;;;;;;;46.53;31.38;;;;;;;;;;5016228;28;39373;-78
2021/04/21 09:41:43;;;;;;;46.63;32.53;;;;;;;;;;5034944;28;37547;-78
2021/04/21 09:44:20;;;;;;;49.45;34.25;;;;;;;;;;5033287;28;38606;-77
2021/04/21 09:46:47;;;;;;;52.22;35.28;;;;;;;;;;5035417;28;37678;-78
2021/04/21 09:49:30;;;;;;;49.03;31.75;;;;;;;;;;5027874;28;39118;-78
2021/04/21 09:51:57;;;;;;;48.75;33.50;;;;;;;;;;5030115;28;38512;-79
2021/04/21 09:54:31;;;;;;;48.75;31.23;;;;;;;;;;5040556;28;37922;-79
2021/04/21 09:57:11;;;;;;;48.20;32.10;;;;;;;;;;5027613;28;39605;-78
2021/04/21 09:59:37;;;;;;;43.00;30.20;;;;;;;;;;5038055;28;48835;-77
2021/04/21 10:02:04;;;;;;;44.47;29.92;;;;;;;;;;5053027;28;37775;-78
2021/04/21 10:04:31;;;;;;;43.58;28.75;;;;;;;;;;5038939;28;39862;-78
2021/04/21 10:06:59;;;;;;;41.08;27.98;;;;;;;;;;5030143;28;40579;-78
2021/04/21 10:09:27;;;;;;;41.88;28.63;;;;;;;;;;5040996;28;39408;-77
2021/04/21 10:12:12;;;;;;;43.03;28.05;;;;;;;;;;5031572;28;37544;-78
2021/04/21 10:14:38;;;;;;;41.55;27.35;;;;;;;;;;5024925;28;47636;-79
2021/04/21 10:17:05;;;;;;;39.33;27.90;;;;;;;;;;5030606;28;38681;-79
2021/04/21 10:19:33;;;;;;;40.28;26.85;;;;;;;;;;5032063;28;40221;-79
2021/04/21 10:21:59;;;;;;;41.80;27.55;;;;;;;;;;5024119;28;37480;-79
2021/04/21 10:24:27;;;;;;;39.00;26.80;;;;;;;;;;5033515;28;39204;-79
2021/04/21 10:26:54;;;;;;;37.00;26.42;;;;;;;;;;5031096;28;39632;-79
2021/04/21 10:29:21;;;;;;;38.17;26.23;;;;;;;;;;5024075;28;38668;-79
2021/04/21 10:31:51;;;;;;;32.08;23.52;;;;;;;;;;5048224;28;35899;-80
2021/04/21 10:34:19;;;;;;;39.92;26.83;;;;;;;;;;5032942;28;39945;-80
2021/04/21 10:36:48;;;;;;;32.63;23.88;;;;;;;;;;5032119;28;39408;-79
2021/04/21 10:39:14;;;;;;;34.17;24.48;;;;;;;;;;5033212;28;39318;-79
2021/04/21 10:41:44;;;;;;;39.17;26.77;;;;;;;;;;5046589;28;37654;-78
2021/04/21 10:44:19;;;;;;;39.47;25.67;;;;;;;;;;5031000;28;39371;-78
2021/04/21 10:46:58;;;;;;;35.38;24.30;;;;;;;;;;5027631;28;40849;-78
2021/04/21 10:49:38;;;;;;;38.17;24.15;;;;;;;;;;5013632;28;39385;-78
2021/04/21 10:52:11;;;;;;;40.88;25.92;;;;;;;;;;5039786;28;35407;-79
2021/04/21 10:54:38;;;;;;;35.97;25.58;;;;;;;;;;5026251;28;39055;-78
2021/04/21 10:57:22;;;;;;;33.95;24.15;;;;;;;;;;5025901;28;39933;-78
2021/04/21 11:00:04;;;;;;;37.60;24.35;;;;;;;;;;5026433;28;39540;-79
2021/04/21 11:02:43;;;;;;;33.85;23.25;;;;;;;;;;5016834;28;47432;-77
2021/04/21 11:05:10;;;;;;;33.05;22.98;;;;;;;;;;5024513;28;39724;-78
2021/04/21 11:07:37;;;;;;;32.90;24.55;;;;;;;;;;5031789;28;39599;-77
2021/04/21 11:10:07;;;;;;;33.22;23.48;;;;;;;;;;5025827;28;39326;-78
2021/04/21 11:12:53;;;;;;;31.65;21.92;;;;;;;;;;5024120;28;37539;-77
2021/04/21 11:15:36;;;;;;;31.45;21.08;;;;;;;;;;5020176;28;38972;-77
2021/04/21 11:18:08;;;;;;;29.45;21.20;;;;;;;;;;5018480;28;37884;-76
2021/04/21 11:20:47;;;;;;;25.83;18.98;;;;;;;;;;5025545;28;38763;-77
2021/04/21 11:23:32;;;;;;;24.58;16.35;;;;;;;;;;5024028;28;38202;-77
2021/04/21 11:26:25;;;;;;;29.23;16.88;;;;;;;;;;5011272;28;39942;-78
2021/04/21 11:28:55;;;;;;;26.63;16.25;;;;;;;;;;4983474;28;47415;-77
2021/04/21 11:31:22;;;;;;;27.02;15.52;;;;;;;;;;5017786;28;38200;-76
2021/04/21 11:33:52;;;;;;;25.67;15.45;;;;;;;;;;5020977;28;36000;-77
2021/04/21 11:36:38;;;;;;;24.40;14.88;;;;;;;;;;5020743;28;39799;-77
2021/04/21 11:39:05;;;;;;;22.98;13.05;;;;;;;;;;5017577;28;39224;-78
2021/04/21 11:41:48;;;;;;;24.13;12.98;;;;;;;;;;5024364;28;38649;-77
2021/04/21 11:44:33;;;;;;;18.17;10.88;;;;;;;;;;5018948;28;37313;-78
2021/04/21 11:47:01;;;;;;;12.85;8.60;;;;;;;;;;5030687;28;38944;-76
2021/04/21 11:49:47;;;;;;;13.23;7.90;;;;;;;;;;5028290;28;48047;-77
2021/04/21 11:52:33;;;;;;;12.38;8.13;;;;;;;;;;5022825;28;38075;-78
2021/04/21 11:54:59;;;;;;;10.95;7.25;;;;;;;;;;5038800;28;35907;-78
2021/04/21 11:57:26;;;;;;;10.55;6.80;;;;;;;;;;5026205;28;37935;-78
2021/04/21 11:59:52;;;;;;;8.48;5.97;;;;;;;;;;5016902;28;38124;-76
2021/04/21 12:02:19;;;;;;;14.48;6.82;;;;;;;;;;5018384;28;39714;-77
2021/04/21 12:04:50;;;;;;;12.18;6.63;;;;;;;;;;5022998;28;35917;-78
2021/04/21 12:07:21;;;;;;;13.02;5.40;;;;;;;;;;5038549;28;37822;-78
2021/04/21 12:09:48;;;;;;;9.65;4.70;;;;;;;;;;5027759;28;40081;-78
2021/04/21 12:12:24;;;;;;;8.05;4.47;;;;;;;;;;5027011;28;38115;-78
2021/04/21 12:15:07;;;;;;;10.02;4.45;;;;;;;;;;5043464;28;36112;-78
2021/04/21 12:17:34;;;;;;;11.73;5.32;;;;;;;;;;5026762;28;47340;-78
2021/04/21 12:20:02;;;;;;;10.85;5.10;;;;;;;;;;5027770;28;40570;-79
2021/04/21 12:22:42;;;;;;;9.00;5.45;;;;;;;;;;5027515;28;49077;-80
2021/04/21 12:25:09;;;;;;;8.95;4.60;;;;;;;;;;5024820;28;37266;-79
2021/04/21 12:27:36;;;;;;;8.50;4.80;;;;;;;;;;5047901;28;39072;-79
2021/04/21 12:30:12;;;;;;;7.82;4.07;;;;;;;;;;5033616;28;38538;-78
2021/04/21 12:32:38;;;;;;;7.35;3.92;;;;;;;;;;5046134;28;39931;-80
2021/04/21 12:35:06;;;;;;;12.32;3.40;;;;;;;;;;5027267;28;36546;-80
2021/04/21 12:37:33;;;;;;;10.35;3.17;;;;;;;;;;5034584;28;39905;-79
2021/04/21 12:39:59;;;;;;;6.85;3.15;;;;;;;;;;5026292;28;39008;-78
2021/04/21 12:42:26;;;;;;;13.40;4.10;;;;;;;;;;5029285;28;20053;-79
2021/04/21 12:44:53;;;;;;;7.50;3.72;;;;;;;;;;5029793;28;37016;-80
2021/04/21 12:47:19;;;;;;;8.32;3.55;;;;;;;;;;5029847;28;39706;-79
2021/04/21 12:49:47;;;;;;;9.15;3.40;;;;;;;;;;5022556;28;36950;-80
2021/04/21 12:52:13;;;;;;;8.15;3.45;;;;;;;;;;5031422;28;38869;-82
2021/04/21 12:54:42;;;;;;;9.55;2.58;;;;;;;;;;5029316;28;38752;-79
2021/04/21 12:57:09;;;;;;;6.55;2.78;;;;;;;;;;5031559;28;39612;-80
2021/04/21 12:59:52;;;;;;;10.73;3.17;;;;;;;;;;5029687;28;39320;-81
2021/04/21 13:02:39;;;;;;;12.45;3.50;;;;;;;;;;5020986;28;39071;-79
2021/04/21 13:05:06;;;;;;;8.93;3.08;;;;;;;;;;5028003;28;37497;-79
2021/04/21 13:07:33;;;;;;;8.23;3.38;;;;;;;;;;5049253;28;39131;-78
2021/04/21 13:10:07;;;;;;;9.82;3.92;;;;;;;;;;5032097;28;39134;-80
2021/04/21 13:12:33;;;;;;;7.60;3.17;;;;;;;;;;5046285;28;48678;-79
2021/04/21 13:15:10;;;;;;;8.77;2.83;;;;;;;;;;5045492;28;36986;-79
2021/04/21 13:17:56;;;;;;;12.55;3.85;;;;;;;;;;5047862;28;48936;-80
2021/04/21 13:20:41;;;;;;;12.48;3.83;;;;;;;;;;5044772;28;38531;-79
2021/04/21 13:26:15;;;;;;;11.95;3.15;;;;;;;;;;5004857;22;37570;-77
2021/04/21 13:28:43;;;;;;;9.05;3.08;;;;;;;;;;5033286;28;39411;-79
2021/04/21 13:31:19;;;;;;;10.23;2.67;;;;;;;;;;5016333;28;37519;-78
2021/04/21 13:33:47;;;;;;;14.88;3.72;;;;;;;;;;5037209;28;38681;-76
2021/04/21 13:36:16;;;;;;;12.25;4.35;;;;;;;;;;5017940;28;37541;-77
2021/04/21 13:38:43;;;;;;;14.02;3.92;;;;;;;;;;5039868;28;38895;-78
2021/04/21 13:41:10;;;;;;;17.05;3.85;;;;;;;;;;5038178;28;36500;-78
2021/04/21 13:43:37;;;;;;;9.02;3.80;;;;;;;;;;5036304;28;38683;-77
2021/04/21 13:46:03;;;;;;;11.43;3.95;;;;;;;;;;5018621;28;37964;-77
2021/04/21 13:48:33;;;;;;;7.70;3.47;;;;;;;;;;5045712;28;39566;-78
2021/04/21 13:51:00;;;;;;;9.35;4.05;;;;;;;;;;5032551;28;39178;-78
2021/04/21 13:53:26;;;;;;;10.80;3.88;;;;;;;;;;5044940;28;39669;-77
2021/04/21 13:55:53;;;;;;;14.52;4.18;;;;;;;;;;5021769;28;37043;-78
2021/04/21 13:58:20;;;;;;;12.88;3.92;;;;;;;;;;5020373;28;40214;-78
2021/04/21 14:00:46;;;;;;;13.82;3.40;;;;;;;;;;5017681;28;38844;-78
2021/04/21 14:03:13;;;;;;;14.00;3.67;;;;;;;;;;5039379;28;39294;-78
2021/04/21 14:05:45;;;;;;;13.10;3.63;;;;;;;;;;5010742;28;35795;-79
2021/04/21 14:08:12;;;;;;;21.88;3.17;;;;;;;;;;5012307;28;38298;-78
2021/04/21 14:10:41;;;;;;;12.00;3.35;;;;;;;;;;5045556;28;39183;-78
2021/04/21 14:13:16;;;;;;;14.70;3.00;;;;;;;;;;5028670;28;39665;-78
2021/04/21 14:15:44;;;;;;;15.85;3.83;;;;;;;;;;5021678;28;36511;-78
2021/04/21 14:18:13;;;;;;;11.90;2.85;;;;;;;;;;5030252;28;37718;-77
2021/04/21 14:20:39;;;;;;;9.07;2.72;;;;;;;;;;5038331;28;38675;-77
2021/04/21 14:23:06;;;;;;;13.05;2.90;;;;;;;;;;5030169;28;37940;-78
2021/04/21 14:25:36;;;;;;;15.88;3.15;;;;;;;;;;5017095;28;35787;-77
2021/04/21 14:28:06;;;;;;;17.13;3.78;;;;;;;;;;5015899;28;38454;-77
2021/04/21 14:30:32;;;;;;;17.75;2.95;;;;;;;;;;5016836;28;49422;-77
2021/04/21 14:32:59;;;;;;;15.55;3.63;;;;;;;;;;5042636;28;38691;-77
2021/04/21 14:35:25;;;;;;;14.98;3.67;;;;;;;;;;5004824;28;37216;-77
2021/04/21 14:37:52;;;;;;;12.90;3.08;;;;;;;;;;5025087;28;39516;-77
2021/04/21 14:40:19;;;;;;;21.58;4.20;;;;;;;;;;5045630;28;39029;-78
2021/04/21 14:42:45;;;;;;;11.75;3.88;;;;;;;;;;5046918;28;38717;-78
2021/04/21 14:45:12;;;;;;;11.48;3.42;;;;;;;;;;5024871;28;35850;-76